createdAt,value
2019-05-09T00:02:24.185Z,100.00
2019-05-09T00:04:54.577Z,100.00
2019-05-09T00:07:24.924Z,100.00
2019-05-09T00:09:56.204Z,100.00
2019-05-09T00:12:27.252Z,100.00
2019-05-09T00:14:58.300Z,100.00
2019-05-09T00:17:29.204Z,99.62
2019-05-09T00:20:03.520Z,99.57
2019-05-09T00:22:34.668Z,99.43
2019-05-09T00:25:07.250Z,99.08
2019-05-09T00:27:38.286Z,99.29
2019-05-09T00:30:09.744Z,98.93
2019-05-09T00:32:43.202Z,98.32
2019-05-09T00:35:23.382Z,98.30
2019-05-09T00:37:56.140Z,98.27
2019-05-09T00:40:27.551Z,98.05
2019-05-09T00:42:58.578Z,98.31
2019-05-09T00:45:30.324Z,98.72
2019-05-09T00:48:03.492Z,99.00
2019-05-09T00:50:34.334Z,99.25
2019-05-09T00:53:05.411Z,99.43
2019-05-09T00:55:36.385Z,99.53
2019-05-09T00:58:07.518Z,99.71
2019-05-09T01:00:38.726Z,100.00
2019-05-09T01:03:10.470Z,100.00
2019-05-09T01:05:43.634Z,100.00
2019-05-09T01:08:14.868Z,100.00
2019-05-09T01:10:45.747Z,100.00
2019-05-09T01:13:17.246Z,99.91
2019-05-09T01:15:48.163Z,99.84
2019-05-09T01:18:18.374Z,99.90
2019-05-09T01:20:49.596Z,100.00
2019-05-09T01:23:20.496Z,100.00
2019-05-09T01:25:52.954Z,100.00
2019-05-09T01:28:23.991Z,100.00
2019-05-09T01:30:55.296Z,99.63
2019-05-09T01:33:27.920Z,99.63
2019-05-09T01:35:58.995Z,100.00
2019-05-09T01:38:29.971Z,100.00
2019-05-09T01:41:01.105Z,99.86
2019-05-09T01:43:33.741Z,99.82
2019-05-09T01:46:05.111Z,99.79
2019-05-09T01:48:36.172Z,99.38
2019-05-09T01:51:07.591Z,99.66
2019-05-09T01:53:46.135Z,99.92
2019-05-09T01:56:16.197Z,100.00
2019-05-09T01:58:47.439Z,100.00
2019-05-09T02:01:18.394Z,100.00
2019-05-09T02:03:49.606Z,100.00
2019-05-09T02:06:20.553Z,100.00
2019-05-09T02:08:54.258Z,100.00
2019-05-09T02:11:38.442Z,100.00
2019-05-09T02:13:57.569Z,100.00
2019-05-09T02:16:33.758Z,100.00
2019-05-09T02:19:06.984Z,100.00
2019-05-09T02:21:37.937Z,100.00
2019-05-09T02:24:09.081Z,100.00
2019-05-09T02:26:40.115Z,100.00
2019-05-09T02:29:13.823Z,100.00
2019-05-09T02:31:44.940Z,100.00
2019-05-09T02:34:15.361Z,100.00
2019-05-09T02:36:49.485Z,100.00
2019-05-09T02:39:19.310Z,100.00
2019-05-09T02:42:00.817Z,100.00
2019-05-09T02:44:23.126Z,100.00
2019-05-09T02:47:01.870Z,100.00
2019-05-09T02:49:32.932Z,100.00
2019-05-09T02:52:04.053Z,100.00
2019-05-09T02:54:35.009Z,100.00
2019-05-09T02:57:08.432Z,100.00
2019-05-09T02:59:41.076Z,100.00
2019-05-09T03:02:19.262Z,100.00
2019-05-09T03:04:49.415Z,100.00
2019-05-09T03:07:22.301Z,100.00
2019-05-09T03:09:53.311Z,100.00
2019-05-09T03:12:32.030Z,100.00
2019-05-09T03:14:58.730Z,100.00
2019-05-09T03:17:29.235Z,100.00
2019-05-09T03:20:00.460Z,100.00
2019-05-09T03:22:31.502Z,100.00
2019-05-09T03:25:02.739Z,100.00
2019-05-09T03:27:39.129Z,100.00
2019-05-09T03:30:12.672Z,100.00
2019-05-09T03:32:43.899Z,100.00
2019-05-09T03:35:17.137Z,100.00
2019-05-09T03:37:49.429Z,100.00
2019-05-09T03:40:20.571Z,100.00
2019-05-09T03:42:51.601Z,100.00
2019-05-09T03:45:24.102Z,100.00
2019-05-09T03:47:58.266Z,100.00
2019-05-09T03:50:28.583Z,100.00
2019-05-09T03:52:59.763Z,100.00
2019-05-09T03:55:32.626Z,100.00
2019-05-09T03:58:14.610Z,100.00
2019-05-09T04:00:47.780Z,100.00
2019-05-09T04:03:20.350Z,100.00
2019-05-09T04:05:58.990Z,100.00
2019-05-09T04:08:24.340Z,100.00
2019-05-09T04:10:58.357Z,100.00
2019-05-09T04:13:30.052Z,100.00
2019-05-09T04:16:07.721Z,100.00
2019-05-09T04:18:40.298Z,100.00
2019-05-09T04:21:12.877Z,100.00
2019-05-09T04:23:44.202Z,100.00
2019-05-09T04:26:22.228Z,100.00
2019-05-09T04:28:52.273Z,100.00
2019-05-09T04:31:23.565Z,100.00
2019-05-09T04:33:54.500Z,100.00
2019-05-09T04:36:41.114Z,100.00
2019-05-09T04:39:20.891Z,100.00
2019-05-09T04:41:48.695Z,100.00
2019-05-09T04:44:23.664Z,100.00
2019-05-09T04:47:01.683Z,100.00
2019-05-09T04:49:29.909Z,100.00
2019-05-09T04:52:00.790Z,100.00
2019-05-09T04:54:31.930Z,100.00
2019-05-09T04:57:03.325Z,100.00
2019-05-09T04:59:34.343Z,100.00
2019-05-09T05:02:08.621Z,100.00
2019-05-09T05:04:39.678Z,100.00
2019-05-09T05:07:11.075Z,100.00
2019-05-09T05:09:42.037Z,100.00
2019-05-09T05:12:12.218Z,100.00
2019-05-09T05:14:43.580Z,100.00
2019-05-09T05:17:14.682Z,100.00
2019-05-09T05:19:47.642Z,100.00
2019-05-09T05:22:20.237Z,99.82
2019-05-09T05:24:59.567Z,99.38
2019-05-09T05:27:28.652Z,99.44
2019-05-09T05:29:59.774Z,98.91
2019-05-09T05:32:32.531Z,98.85
2019-05-09T05:35:09.836Z,98.63
2019-05-09T05:37:40.741Z,98.14
2019-05-09T05:40:12.202Z,98.35
2019-05-09T05:42:43.273Z,98.87
2019-05-09T05:45:14.548Z,98.09
2019-05-09T05:47:52.908Z,98.36
2019-05-09T05:50:23.002Z,98.23
2019-05-09T05:52:54.250Z,97.93
2019-05-09T05:55:27.315Z,96.87
2019-05-09T05:57:58.122Z,95.48
2019-05-09T06:00:29.324Z,94.65
2019-05-09T06:03:00.554Z,94.23
2019-05-09T06:05:31.597Z,93.16
2019-05-09T06:08:02.776Z,91.72
2019-05-09T06:10:33.727Z,90.34
2019-05-09T06:13:05.047Z,90.66
2019-05-09T06:15:37.915Z,88.94
2019-05-09T06:18:08.972Z,83.25
2019-05-09T06:20:40.026Z,80.62
2019-05-09T06:23:10.085Z,79.09
2019-05-09T06:25:41.335Z,70.54
2019-05-09T06:28:12.446Z,67.05
2019-05-09T06:30:43.500Z,67.86
2019-05-09T06:33:14.519Z,71.30
2019-05-09T06:35:47.986Z,72.81
2019-05-09T06:38:18.835Z,74.50
2019-05-09T06:40:50.166Z,73.58
2019-05-09T06:43:25.407Z,71.79
2019-05-09T06:46:00.927Z,74.47
2019-05-09T06:48:32.125Z,72.69
2019-05-09T06:51:03.551Z,69.80
2019-05-09T06:53:34.582Z,69.30
2019-05-09T06:56:07.452Z,67.65
2019-05-09T06:58:40.198Z,68.41
2019-05-09T07:01:11.937Z,70.59
2019-05-09T07:03:53.275Z,70.08
2019-05-09T07:06:28.175Z,70.92
2019-05-09T07:09:17.424Z,70.49
2019-05-09T07:11:48.767Z,70.84
2019-05-09T07:14:41.295Z,71.44
2019-05-09T07:17:09.058Z,70.82
2019-05-09T07:19:43.453Z,70.56
2019-05-09T07:22:28.096Z,67.09
2019-05-09T07:25:10.980Z,68.52
2019-05-09T07:27:48.303Z,69.33
2019-05-09T07:30:21.203Z,69.89
2019-05-09T07:33:03.117Z,68.41
2019-05-09T07:35:34.335Z,70.51
2019-05-09T07:38:05.316Z,64.78
2019-05-09T07:40:38.515Z,65.57
2019-05-09T07:43:09.095Z,63.77
2019-05-09T07:45:41.799Z,63.39
2019-05-09T07:48:12.696Z,63.50
2019-05-09T07:50:44.079Z,64.72
2019-05-09T07:53:14.949Z,65.72
2019-05-09T07:55:47.244Z,66.30
2019-05-09T07:58:18.812Z,66.23
2019-05-09T08:00:48.985Z,65.65
2019-05-09T08:03:20.293Z,65.27
2019-05-09T08:05:51.270Z,65.07
2019-05-09T08:08:22.575Z,64.08
2019-05-09T08:10:54.589Z,63.16
2019-05-09T08:13:28.777Z,61.96
2019-05-09T08:15:58.937Z,62.76
2019-05-09T08:18:30.075Z,62.94
2019-05-09T08:21:00.993Z,63.36
2019-05-09T08:23:32.186Z,63.66
2019-05-09T08:26:04.585Z,60.94
2019-05-09T08:28:38.559Z,57.00
2019-05-09T08:31:08.703Z,58.23
2019-05-09T08:33:38.890Z,59.22
2019-05-09T08:36:10.156Z,57.39
2019-05-09T08:38:41.194Z,57.58
2019-05-09T08:41:13.810Z,54.09
2019-05-09T08:43:44.783Z,55.32
2019-05-09T08:46:18.215Z,55.42
2019-05-09T08:48:48.899Z,55.10
2019-05-09T08:51:37.411Z,54.73
2019-05-09T08:54:01.687Z,55.44
2019-05-09T08:56:32.982Z,56.36
2019-05-09T08:59:04.003Z,55.23
2019-05-09T09:01:54.159Z,56.57
2019-05-09T09:04:08.193Z,57.12
2019-05-09T09:06:39.480Z,56.07
2019-05-09T09:09:10.520Z,56.71
2019-05-09T09:11:40.623Z,55.13
2019-05-09T09:14:11.760Z,54.18
2019-05-09T09:16:42.738Z,53.62
2019-05-09T09:19:13.851Z,51.62
2019-05-09T09:21:46.889Z,50.60
2019-05-09T09:24:17.807Z,49.77
2019-05-09T09:26:48.787Z,52.72
2019-05-09T09:29:19.946Z,52.27
2019-05-09T09:31:50.985Z,50.82
2019-05-09T09:34:22.450Z,50.19
2019-05-09T09:36:53.560Z,50.38
2019-05-09T09:39:27.286Z,51.34
2019-05-09T09:41:58.662Z,54.92
2019-05-09T09:44:28.954Z,56.17
2019-05-09T09:47:00.111Z,55.61
2019-05-09T09:49:31.044Z,55.37
2019-05-09T09:52:02.179Z,53.87
2019-05-09T09:54:33.294Z,50.89
2019-05-09T09:57:04.600Z,50.88
2019-05-09T09:59:38.579Z,50.47
2019-05-09T10:02:11.673Z,50.59
2019-05-09T10:04:42.693Z,51.10
2019-05-09T10:07:14.002Z,51.66
2019-05-09T10:09:45.047Z,52.42
2019-05-09T10:12:18.199Z,51.47
2019-05-09T10:14:50.655Z,51.52
2019-05-09T10:17:22.451Z,50.86
2019-05-09T10:19:55.186Z,50.73
2019-05-09T10:22:28.949Z,48.63
2019-05-09T10:25:00.080Z,48.26
2019-05-09T10:27:30.985Z,48.91
2019-05-09T10:30:02.302Z,46.78
2019-05-09T10:32:33.408Z,48.27
2019-05-09T10:35:08.586Z,48.08
2019-05-09T10:37:39.401Z,49.20
2019-05-09T10:40:13.645Z,50.99
2019-05-09T10:42:48.352Z,51.41
2019-05-09T10:45:20.933Z,50.28
2019-05-09T10:47:51.842Z,51.80
2019-05-09T10:50:23.058Z,51.90
2019-05-09T10:52:53.923Z,53.14
2019-05-09T10:55:24.170Z,54.83
2019-05-09T10:57:55.508Z,54.22
2019-05-09T11:00:28.747Z,54.50
2019-05-09T11:02:59.247Z,54.74
2019-05-09T11:05:30.196Z,56.61
2019-05-09T11:08:01.381Z,60.27
2019-05-09T11:10:32.935Z,66.49
2019-05-09T11:13:04.383Z,77.36
2019-05-09T11:15:37.530Z,92.10
2019-05-09T11:18:08.421Z,95.29
2019-05-09T11:20:39.368Z,95.46
2019-05-09T11:23:10.722Z,100.00
2019-05-09T11:25:41.944Z,100.00
2019-05-09T11:28:19.667Z,100.00
2019-05-09T11:30:59.596Z,100.00
2019-05-09T11:33:34.175Z,100.00
2019-05-09T11:36:09.933Z,100.00
2019-05-09T11:38:49.080Z,97.57
2019-05-09T11:41:31.477Z,96.71
2019-05-09T11:44:08.258Z,92.84
2019-05-09T11:46:47.795Z,91.63
2019-05-09T11:49:24.686Z,82.31
2019-05-09T11:51:57.743Z,87.90
2019-05-09T11:54:31.890Z,85.90
2019-05-09T11:57:07.641Z,85.69
2019-05-09T11:59:41.128Z,84.34
2019-05-09T12:02:13.698Z,86.33
2019-05-09T12:04:52.295Z,88.23
2019-05-09T12:07:31.178Z,85.57
2019-05-09T12:10:08.977Z,87.94
2019-05-09T12:12:43.451Z,88.45
2019-05-09T12:15:19.486Z,92.28
2019-05-09T12:17:59.178Z,92.42
2019-05-09T12:20:32.485Z,95.95
2019-05-09T12:23:04.875Z,96.63
2019-05-09T12:25:38.628Z,93.29
2019-05-09T12:28:11.471Z,92.68
2019-05-09T12:30:48.804Z,87.87
2019-05-09T12:33:21.278Z,88.22
2019-05-09T12:35:52.600Z,89.73
2019-05-09T12:38:23.641Z,88.33
2019-05-09T12:40:54.753Z,88.39
2019-05-09T12:43:28.188Z,87.69
2019-05-09T12:45:58.492Z,87.32
2019-05-09T12:48:29.442Z,86.75
2019-05-09T12:51:00.570Z,82.79
2019-05-09T12:53:31.708Z,82.85
2019-05-09T12:56:04.740Z,75.43
2019-05-09T12:58:35.671Z,79.27
2019-05-09T13:01:08.497Z,76.37
2019-05-09T13:03:39.400Z,79.76
2019-05-09T13:06:09.514Z,80.25
2019-05-09T13:08:40.543Z,74.73
2019-05-09T13:11:11.523Z,70.51
2019-05-09T13:13:42.640Z,69.39
2019-05-09T13:16:17.513Z,68.33
2019-05-09T13:19:06.016Z,66.31
2019-05-09T13:21:38.989Z,70.18
2019-05-09T13:24:09.744Z,71.13
2019-05-09T13:26:41.565Z,73.73
2019-05-09T13:29:12.747Z,71.98
2019-05-09T13:31:43.679Z,69.05
2019-05-09T13:34:14.858Z,70.85
2019-05-09T13:36:45.735Z,70.17
2019-05-09T13:39:17.960Z,66.51
2019-05-09T13:41:49.018Z,66.45
2019-05-09T13:44:19.151Z,67.09
2019-05-09T13:46:50.197Z,66.10
2019-05-09T13:49:21.240Z,65.37
2019-05-09T13:52:00.373Z,66.01
2019-05-09T13:54:24.977Z,65.90
2019-05-09T13:57:00.377Z,67.33
2019-05-09T13:59:30.156Z,65.63
2019-05-09T14:02:01.520Z,67.18
2019-05-09T14:04:32.592Z,67.96
2019-05-09T14:07:03.744Z,70.34
2019-05-09T14:09:34.647Z,69.22
2019-05-09T14:12:09.379Z,73.32
2019-05-09T14:14:39.642Z,76.58
2019-05-09T14:17:13.548Z,78.35
2019-05-09T14:19:46.701Z,80.22
2019-05-09T14:22:17.749Z,87.54
2019-05-09T14:24:48.459Z,94.42
2019-05-09T14:27:19.472Z,100.00
2019-05-09T14:29:50.669Z,100.00
2019-05-09T14:32:21.557Z,100.00
2019-05-09T14:34:52.650Z,100.00
2019-05-09T14:37:23.621Z,100.00
2019-05-09T14:39:58.853Z,100.00
2019-05-09T14:42:29.051Z,100.00
2019-05-09T14:45:00.278Z,100.00
2019-05-09T14:47:31.219Z,100.00
2019-05-09T14:50:02.477Z,100.00
2019-05-09T14:52:33.548Z,100.00
2019-05-09T14:55:04.724Z,100.00
2019-05-09T14:57:38.290Z,100.00
2019-05-09T15:00:09.188Z,100.00
2019-05-09T15:02:40.423Z,100.00
2019-05-09T15:05:11.768Z,100.00
2019-05-09T15:07:43.111Z,100.00
2019-05-09T15:10:14.372Z,100.00
2019-05-09T15:12:45.604Z,100.00
2019-05-09T15:15:18.485Z,100.00
2019-05-09T15:17:49.979Z,100.00
2019-05-09T15:20:21.261Z,100.00
2019-05-09T15:22:52.415Z,100.00
2019-05-09T15:25:23.581Z,100.00
2019-05-09T15:27:53.967Z,100.00
2019-05-09T15:30:25.205Z,100.00
2019-05-09T15:32:58.423Z,100.00
2019-05-09T15:35:29.152Z,100.00
2019-05-09T15:38:02.023Z,100.00
2019-05-09T15:40:33.148Z,100.00
2019-05-09T15:43:04.109Z,100.00
2019-05-09T15:45:40.678Z,100.00
2019-05-09T15:48:09.567Z,100.00
2019-05-09T15:50:40.692Z,100.00
2019-05-09T15:53:11.770Z,100.00
2019-05-09T15:55:44.442Z,100.00
2019-05-09T15:58:18.815Z,100.00
2019-05-09T16:00:50.154Z,100.00
2019-05-09T16:03:21.187Z,100.00
2019-05-09T16:05:51.329Z,100.00
2019-05-09T16:08:22.552Z,100.00
2019-05-09T16:10:53.526Z,100.00
2019-05-09T16:13:24.683Z,100.00
2019-05-09T16:15:57.455Z,100.00
2019-05-09T16:18:28.924Z,100.00
2019-05-09T16:21:00.008Z,100.00
2019-05-09T16:23:31.070Z,100.00
2019-05-09T16:26:02.145Z,100.00
2019-05-09T16:28:33.341Z,100.00
2019-05-09T16:31:04.529Z,100.00
2019-05-09T16:33:35.767Z,100.00
2019-05-09T16:36:07.687Z,100.00
2019-05-09T16:38:45.030Z,99.74
2019-05-09T16:41:10.847Z,100.00
2019-05-09T16:43:43.505Z,98.41
2019-05-09T16:46:14.782Z,97.59
2019-05-09T16:48:47.561Z,97.88
2019-05-09T16:51:19.008Z,99.74
2019-05-09T16:53:50.000Z,98.27
2019-05-09T16:56:21.324Z,98.44
2019-05-09T16:58:52.272Z,95.77
2019-05-09T17:01:24.907Z,97.60
2019-05-09T17:03:59.413Z,95.65
2019-05-09T17:06:32.286Z,95.77
2019-05-09T17:09:08.508Z,94.38
2019-05-09T17:11:40.575Z,94.24
2019-05-09T17:14:13.600Z,92.80
2019-05-09T17:16:43.549Z,91.53
2019-05-09T17:19:14.852Z,92.53
2019-05-09T17:21:50.274Z,93.34
2019-05-09T17:24:22.852Z,92.60
2019-05-09T17:26:53.946Z,93.39
2019-05-09T17:29:24.994Z,94.35
2019-05-09T17:31:58.278Z,95.03
2019-05-09T17:34:29.106Z,95.07
2019-05-09T17:37:00.174Z,96.48
2019-05-09T17:39:31.286Z,96.43
2019-05-09T17:42:02.392Z,96.08
2019-05-09T17:44:33.512Z,95.78
2019-05-09T17:47:04.648Z,96.05
2019-05-09T17:49:34.875Z,96.73
2019-05-09T17:52:07.581Z,96.55
2019-05-09T17:54:39.387Z,97.12
2019-05-09T17:57:10.821Z,96.93
2019-05-09T17:59:41.859Z,96.41
2019-05-09T18:02:13.002Z,96.54
2019-05-09T18:04:44.004Z,96.99
2019-05-09T18:07:15.273Z,97.17
2019-05-09T18:09:48.339Z,96.72
2019-05-09T18:12:19.187Z,96.72
2019-05-09T18:14:50.159Z,96.43
2019-05-09T18:17:21.362Z,96.35
2019-05-09T18:19:52.404Z,97.81
2019-05-09T18:22:23.691Z,96.75
2019-05-09T18:24:54.570Z,96.63
2019-05-09T18:27:29.076Z,97.91
2019-05-09T18:30:00.234Z,96.84
2019-05-09T18:32:33.134Z,97.73
2019-05-09T18:35:13.314Z,97.69
2019-05-09T18:37:44.531Z,99.22
2019-05-09T18:40:17.955Z,98.39
2019-05-09T18:42:49.269Z,99.05
2019-05-09T18:45:21.299Z,98.49
2019-05-09T18:47:52.741Z,97.86
2019-05-09T18:50:24.232Z,97.75
2019-05-09T18:52:58.335Z,97.96
2019-05-09T18:55:29.877Z,97.59
2019-05-09T18:58:02.443Z,98.09
2019-05-09T19:00:39.873Z,97.56
2019-05-09T19:03:11.103Z,97.07
2019-05-09T19:05:41.220Z,96.05
2019-05-09T19:08:14.615Z,96.15
2019-05-09T19:10:52.327Z,95.32
2019-05-09T19:13:23.974Z,95.77
2019-05-09T19:16:02.203Z,95.86
2019-05-09T19:18:45.243Z,96.39
2019-05-09T19:21:23.661Z,97.15
2019-05-09T19:23:54.782Z,96.93
2019-05-09T19:26:37.693Z,97.15
2019-05-09T19:29:09.794Z,97.08
2019-05-09T19:31:40.660Z,97.73
2019-05-09T19:34:11.862Z,98.25
2019-05-09T19:36:46.092Z,99.06
2019-05-09T19:39:17.351Z,100.00
2019-05-09T19:41:48.492Z,100.00
2019-05-09T19:44:19.573Z,100.00
2019-05-09T19:46:50.479Z,100.00
2019-05-09T19:49:20.662Z,100.00
2019-05-09T19:51:51.975Z,100.00
2019-05-09T19:54:22.963Z,100.00
2019-05-09T19:56:54.301Z,100.00
2019-05-09T19:59:25.314Z,100.00
2019-05-09T20:01:56.592Z,100.00
2019-05-09T20:04:27.631Z,100.00
2019-05-09T20:06:58.683Z,100.00
2019-05-09T20:09:34.272Z,100.00
2019-05-09T20:12:23.796Z,100.00
2019-05-09T20:14:54.968Z,100.00
2019-05-09T20:17:26.140Z,100.00
2019-05-09T20:19:57.188Z,100.00
2019-05-09T20:22:31.321Z,100.00
2019-05-09T20:25:02.295Z,100.00
2019-05-09T20:27:32.360Z,99.97
2019-05-09T20:30:04.948Z,100.00
2019-05-09T20:32:35.945Z,100.00
2019-05-09T20:35:10.243Z,99.64
2019-05-09T20:37:41.315Z,99.86
2019-05-09T20:40:13.027Z,99.85
2019-05-09T20:42:44.261Z,100.00
2019-05-09T20:45:15.640Z,100.00
2019-05-09T20:47:46.762Z,100.00
2019-05-09T20:50:18.163Z,100.00
2019-05-09T20:52:49.226Z,100.00
2019-05-09T20:55:20.681Z,100.00
2019-05-09T20:57:52.244Z,99.71
2019-05-09T21:00:23.992Z,99.43
2019-05-09T21:02:55.115Z,99.51
2019-05-09T21:05:25.406Z,99.51
2019-05-09T21:07:56.743Z,99.75
2019-05-09T21:10:27.922Z,100.00
2019-05-09T21:12:59.247Z,100.00
2019-05-09T21:15:33.148Z,100.00
2019-05-09T21:18:04.887Z,100.00
2019-05-09T21:20:36.101Z,100.00
2019-05-09T21:23:07.609Z,100.00
2019-05-09T21:25:38.778Z,100.00
2019-05-09T21:28:10.075Z,100.00
2019-05-09T21:30:41.142Z,100.00
2019-05-09T21:33:12.467Z,100.00
2019-05-09T21:35:43.401Z,100.00
2019-05-09T21:38:13.525Z,100.00
2019-05-09T21:40:45.053Z,100.00
2019-05-09T21:43:15.994Z,100.00
2019-05-09T21:45:47.253Z,100.00
2019-05-09T21:48:18.295Z,100.00
2019-05-09T21:50:49.511Z,100.00
2019-05-09T21:53:20.968Z,100.00
2019-05-09T21:55:52.123Z,100.00
2019-05-09T21:58:23.105Z,99.76
2019-05-09T22:00:57.496Z,99.47
2019-05-09T22:03:28.488Z,99.73
2019-05-09T22:05:59.675Z,99.54
2019-05-09T22:08:30.830Z,99.51
2019-05-09T22:11:02.688Z,99.38
2019-05-09T22:13:33.571Z,99.16
2019-05-09T22:16:03.822Z,99.08
2019-05-09T22:18:34.966Z,99.22
2019-05-09T22:21:05.924Z,98.72
2019-05-09T22:23:36.980Z,98.76
2019-05-09T22:26:07.996Z,98.64
2019-05-09T22:28:39.374Z,98.93
2019-05-09T22:31:10.346Z,99.38
2019-05-09T22:33:41.479Z,99.91
2019-05-09T22:36:12.386Z,100.00
2019-05-09T22:38:43.795Z,100.00
2019-05-09T22:41:14.826Z,100.00
2019-05-09T22:43:46.135Z,100.00
2019-05-09T22:46:17.117Z,100.00
2019-05-09T22:48:47.156Z,100.00
2019-05-09T22:51:18.473Z,100.00
2019-05-09T22:53:49.437Z,100.00
2019-05-09T22:56:20.785Z,100.00
2019-05-09T22:58:51.745Z,100.00
2019-05-09T23:01:23.066Z,100.00
2019-05-09T23:03:54.012Z,99.92
2019-05-09T23:06:25.287Z,99.18
2019-05-09T23:08:56.170Z,98.85
2019-05-09T23:11:27.199Z,97.73
2019-05-09T23:13:58.215Z,97.49
2019-05-09T23:16:31.202Z,97.35
2019-05-09T23:19:02.163Z,96.97
2019-05-09T23:21:32.295Z,96.40
2019-05-09T23:24:05.193Z,96.16
2019-05-09T23:26:36.073Z,96.24
2019-05-09T23:29:07.378Z,95.83
2019-05-09T23:31:40.049Z,95.66
2019-05-09T23:34:11.153Z,95.74
2019-05-09T23:36:42.327Z,95.93
2019-05-09T23:39:17.590Z,96.00
2019-05-09T23:41:48.484Z,96.03
2019-05-09T23:44:19.759Z,96.36
2019-05-09T23:46:50.743Z,96.24
2019-05-09T23:49:22.030Z,96.22
2019-05-09T23:51:52.995Z,96.56
2019-05-09T23:54:47.008Z,97.55
2019-05-09T23:57:32.349Z,97.57
